You are listening to:
VTSS Approach - Songkhla, Thailand

VTSS 041830Z 00000KT 9999 FEW002 BKN100 25/24 Q1008 NOSIG

If stream doesn't start automatically press the play button
If stream stops then reload player then press play